Time;durP1;ratioP1;P1;durP2;ratioP2;P2;SDS_P1;SDS_P2;PMS_P1;PMS_P2;Temp;Humidity;BMP_temperature;BMP_pressure;BME280_temperature;BME280_humidity;BME280_pressure;Samples;Min_cycle;Max_cycle;Signal;HPM_P1;HPM_P2
2022/01/10 00:02:02;;;;;;;24.52;3.80;;;3.80;99.90;;;;;;4915372;29;20039;-63
2022/01/10 00:04:28;;;;;;;33.40;4.60;;;3.80;99.90;;;;;;4940318;28;20035;-63
2022/01/10 00:06:53;;;;;;;35.88;4.55;;;3.90;99.90;;;;;;4941160;29;20553;-64
2022/01/10 00:09:19;;;;;;;40.92;5.93;;;4.00;99.90;;;;;;4915295;29;20044;-63
2022/01/10 00:11:45;;;;;;;39.00;5.95;;;4.10;99.90;;;;;;4919023;29;20056;-63
2022/01/10 00:14:11;;;;;;;38.72;5.20;;;4.10;99.90;;;;;;4914206;29;20112;-63
2022/01/10 00:16:37;;;;;;;25.30;3.63;;;4.10;99.90;;;;;;4910995;29;20130;-63
2022/01/10 00:19:03;;;;;;;38.13;4.88;;;4.20;99.90;;;;;;4929501;29;20126;-63
2022/01/10 00:21:29;;;;;;;29.23;3.22;;;4.20;99.90;;;;;;4928280;29;20082;-63
2022/01/10 00:23:55;;;;;;;32.67;3.83;;;4.30;99.90;;;;;;4931113;29;20051;-63
2022/01/10 00:26:21;;;;;;;43.20;4.38;;;4.30;99.90;;;;;;4928483;29;20044;-63
2022/01/10 00:28:46;;;;;;;18.95;3.30;;;4.20;99.90;;;;;;4912547;29;20398;-63
2022/01/10 00:31:14;;;;;;;24.13;3.85;;;4.20;99.90;;;;;;4929129;29;20051;-63
2022/01/10 00:33:39;;;;;;;28.23;4.07;;;4.20;99.90;;;;;;4918945;29;20051;-63
2022/01/10 00:36:05;;;;;;;25.63;3.33;;;4.20;99.90;;;;;;4929414;29;20399;-63
2022/01/10 00:38:31;;;;;;;18.73;3.33;;;4.20;99.90;;;;;;4928447;29;20107;-63
2022/01/10 00:41:00;;;;;;;41.03;4.32;;;4.20;99.90;;;;;;4929203;29;20126;-63
2022/01/10 00:43:34;;;;;;;40.75;3.95;;;4.20;99.90;;;;;;4928116;29;20402;-64
2022/01/10 00:46:01;;;;;;;34.75;4.13;;;4.20;99.90;;;;;;4937814;29;20438;-63
2022/01/10 00:48:27;;;;;;;29.48;4.72;;;4.20;99.90;;;;;;4934452;29;20047;-63
2022/01/10 00:50:53;;;;;;;29.05;3.13;;;4.30;99.90;;;;;;4937683;29;20051;-63
2022/01/10 00:53:19;;;;;;;41.70;4.55;;;4.30;99.90;;;;;;4929356;29;20212;-63
2022/01/10 00:55:44;;;;;;;32.35;4.15;;;4.30;99.90;;;;;;4928746;29;20098;-63
2022/01/10 00:58:10;;;;;;;28.33;3.60;;;4.30;99.90;;;;;;4929047;29;20036;-63
2022/01/10 01:00:36;;;;;;;28.40;4.30;;;4.30;99.90;;;;;;4927696;29;20040;-63
2022/01/10 01:03:02;;;;;;;26.38;3.75;;;4.30;99.90;;;;;;4928429;29;20063;-64
2022/01/10 01:05:30;;;;;;;33.55;4.05;;;4.20;99.90;;;;;;4926312;29;20434;-63
2022/01/10 01:08:00;;;;;;;31.65;4.30;;;4.10;99.90;;;;;;4921243;29;20055;-64
2022/01/10 01:13:27;;;;;;;40.08;4.25;;;4.00;99.90;;;;;;4927707;29;20103;-64
2022/01/10 01:24:04;;;;;;;28.35;4.72;;;3.60;99.90;;;;;;4916145;29;20509;-64
2022/01/10 01:26:33;;;;;;;41.38;4.25;;;3.50;99.90;;;;;;4939883;29;20055;-64
2022/01/10 01:28:59;;;;;;;31.42;3.83;;;3.30;99.90;;;;;;4915597;29;20051;-64
2022/01/10 01:31:25;;;;;;;34.08;4.65;;;3.30;99.90;;;;;;4931217;29;20126;-64
2022/01/10 01:33:51;;;;;;;29.00;4.00;;;3.20;99.90;;;;;;4930518;29;20067;-64
2022/01/10 01:36:23;;;;;;;30.67;4.05;;;3.10;99.90;;;;;;4919166;29;20047;-64
2022/01/10 01:38:51;;;;;;;28.77;4.85;;;3.00;99.90;;;;;;4930872;29;20502;-64
2022/01/10 01:43:54;;;;;;;26.85;3.90;;;2.90;99.90;;;;;;4930904;29;20507;-64
2022/01/10 01:46:20;;;;;;;32.00;5.47;;;2.90;99.90;;;;;;4934374;29;20127;-64
2022/01/10 01:48:47;;;;;;;28.60;4.10;;;2.80;99.90;;;;;;4897450;29;20048;-64
2022/01/10 01:51:14;;;;;;;32.63;4.70;;;2.80;99.90;;;;;;4894568;29;20526;-64
2022/01/10 01:53:40;;;;;;;35.33;4.75;;;2.70;99.90;;;;;;4913516;29;20048;-64
2022/01/10 01:56:08;;;;;;;22.55;3.97;;;2.70;99.90;;;;;;4911821;29;20067;-64
2022/01/10 01:58:36;;;;;;;42.05;5.53;;;2.70;99.90;;;;;;4915970;29;20096;-64
2022/01/10 02:01:03;;;;;;;33.58;4.80;;;2.70;99.90;;;;;;4894658;29;20495;-63
2022/01/10 02:03:38;;;;;;;29.42;4.13;;;2.70;99.90;;;;;;4911662;29;20044;-63
2022/01/10 02:06:05;;;;;;;29.10;4.50;;;2.70;99.90;;;;;;4912987;29;20055;-63
2022/01/10 02:08:32;;;;;;;27.00;4.13;;;2.60;99.90;;;;;;4895512;29;20143;-64
2022/01/10 02:10:58;;;;;;;35.85;4.82;;;2.60;99.90;;;;;;4912916;29;20040;-64
2022/01/10 02:13:24;;;;;;;34.63;4.40;;;2.50;99.90;;;;;;4911078;29;20436;-64
2022/01/10 02:16:02;;;;;;;31.88;4.13;;;2.50;99.90;;;;;;4911320;29;20095;-64
2022/01/10 02:18:29;;;;;;;33.55;4.65;;;2.40;99.90;;;;;;4919339;29;20106;-64
2022/01/10 02:21:00;;;;;;;33.60;4.13;;;2.40;99.90;;;;;;4899361;29;20056;-64
2022/01/10 02:23:27;;;;;;;27.40;3.70;;;2.30;99.90;;;;;;4920952;29;20044;-63
2022/01/10 02:25:55;;;;;;;42.85;4.70;;;2.30;99.90;;;;;;4909645;29;20491;-64
2022/01/10 02:28:21;;;;;;;41.95;4.57;;;2.20;99.90;;;;;;4913500;29;20447;-63
2022/01/10 02:30:47;;;;;;;38.28;4.03;;;2.20;99.90;;;;;;4892837;29;20040;-64
2022/01/10 02:33:13;;;;;;;21.95;3.42;;;2.10;99.90;;;;;;4911488;29;20070;-63
2022/01/10 02:35:47;;;;;;;29.35;3.97;;;2.10;99.90;;;;;;4910712;29;20479;-63
2022/01/10 02:38:14;;;;;;;35.10;3.75;;;2.10;99.90;;;;;;4910781;29;20044;-64
2022/01/10 02:40:41;;;;;;;30.25;3.63;;;2.10;99.90;;;;;;4912793;29;20044;-63
2022/01/10 02:43:10;;;;;;;35.95;4.60;;;2.00;99.90;;;;;;4909784;29;20094;-63
2022/01/10 02:45:36;;;;;;;26.92;3.85;;;2.00;99.90;;;;;;4911555;29;20044;-63
2022/01/10 02:48:02;;;;;;;17.00;3.22;;;1.90;99.90;;;;;;4925760;29;20113;-63
2022/01/10 02:50:28;;;;;;;26.42;3.50;;;1.80;99.90;;;;;;4933380;29;20458;-63
2022/01/10 02:52:54;;;;;;;28.70;3.10;;;1.70;99.90;;;;;;4929346;29;20044;-63
2022/01/10 02:55:19;;;;;;;23.98;2.88;;;1.50;99.90;;;;;;4929988;29;20040;-63
2022/01/10 02:57:45;;;;;;;30.50;4.05;;;1.50;99.90;;;;;;4928974;29;20039;-63
2022/01/10 03:00:17;;;;;;;32.33;3.95;;;1.50;99.90;;;;;;4930124;29;20420;-63
2022/01/10 03:02:44;;;;;;;27.58;3.85;;;1.40;99.90;;;;;;4928673;29;20043;-63
2022/01/10 03:05:11;;;;;;;22.20;3.08;;;1.50;99.90;;;;;;4930079;29;20046;-63
2022/01/10 03:07:38;;;;;;;22.73;3.33;;;1.40;99.90;;;;;;4913136;29;20319;-63
2022/01/10 03:10:06;;;;;;;31.58;3.90;;;1.40;99.90;;;;;;4913797;29;20099;-64
2022/01/10 03:12:32;;;;;;;27.02;3.90;;;1.30;99.90;;;;;;4912750;29;20060;-63
2022/01/10 03:14:58;;;;;;;31.23;3.78;;;1.30;99.90;;;;;;4929645;29;20585;-64
2022/01/10 03:17:25;;;;;;;19.00;3.25;;;1.30;99.90;;;;;;4919855;29;20102;-63
2022/01/10 03:19:51;;;;;;;25.38;3.63;;;1.30;99.90;;;;;;4939088;29;20382;-63
2022/01/10 03:22:16;;;;;;;21.73;3.63;;;1.30;99.90;;;;;;4942198;29;20047;-63
2022/01/10 03:24:42;;;;;;;25.77;3.63;;;1.20;99.90;;;;;;4922422;29;20086;-63
2022/01/10 03:27:08;;;;;;;22.60;4.47;;;1.20;99.90;;;;;;4940405;29;20043;-63
2022/01/10 03:29:35;;;;;;;28.52;3.97;;;1.10;99.90;;;;;;4939759;29;20581;-63
2022/01/10 03:32:05;;;;;;;26.70;3.95;;;1.10;99.90;;;;;;4920580;29;20500;-63
2022/01/10 03:34:32;;;;;;;24.67;3.60;;;1.00;99.90;;;;;;4940550;29;20410;-64
2022/01/10 03:36:57;;;;;;;25.67;3.75;;;1.00;99.90;;;;;;4939139;29;20079;-63
2022/01/10 03:39:24;;;;;;;38.05;3.95;;;1.10;99.90;;;;;;4941059;28;20105;-63
2022/01/10 03:41:50;;;;;;;33.25;4.28;;;1.10;99.90;;;;;;4937526;29;20142;-63
2022/01/10 03:44:15;;;;;;;27.45;3.78;;;1.10;99.90;;;;;;4941622;29;20082;-63
2022/01/10 03:46:42;;;;;;;36.42;4.15;;;1.20;99.90;;;;;;4938412;29;20126;-64
2022/01/10 03:49:07;;;;;;;27.08;3.75;;;1.20;99.90;;;;;;4939454;29;20058;-63
2022/01/10 03:51:33;;;;;;;24.05;3.72;;;1.10;99.90;;;;;;4940467;29;20059;-63
2022/01/10 03:53:59;;;;;;;26.60;4.25;;;1.10;99.90;;;;;;4938618;29;20047;-63
2022/01/10 03:56:28;;;;;;;22.48;3.03;;;1.10;99.90;;;;;;4923762;29;20130;-63
2022/01/10 03:58:54;;;;;;;22.27;3.95;;;1.10;99.90;;;;;;4937716;29;20118;-63
2022/01/10 04:01:20;;;;;;;22.52;3.38;;;1.10;99.90;;;;;;4936806;29;20426;-64
2022/01/10 04:03:46;;;;;;;27.80;4.32;;;1.20;99.90;;;;;;4936604;29;20055;-63
2022/01/10 04:06:12;;;;;;;27.52;3.85;;;1.10;99.90;;;;;;4922739;29;20035;-63
2022/01/10 04:08:38;;;;;;;31.73;3.67;;;1.00;99.90;;;;;;4939746;29;20088;-63
2022/01/10 04:11:04;;;;;;;31.02;4.22;;;1.00;99.90;;;;;;4929391;29;20075;-63
2022/01/10 04:13:30;;;;;;;29.90;3.72;;;0.90;99.90;;;;;;4920588;29;20138;-63
2022/01/10 04:15:57;;;;;;;30.67;3.80;;;1.00;99.90;;;;;;4932802;29;20526;-63
2022/01/10 04:18:23;;;;;;;26.98;4.28;;;0.90;99.90;;;;;;4926841;29;20036;-63
2022/01/10 04:20:49;;;;;;;29.90;3.20;;;0.90;99.90;;;;;;4929551;29;20050;-63
2022/01/10 04:23:16;;;;;;;24.88;3.78;;;1.00;99.90;;;;;;4929066;29;20116;-63
2022/01/10 04:25:42;;;;;;;20.40;3.67;;;1.10;99.90;;;;;;4928455;29;20086;-63
2022/01/10 04:28:08;;;;;;;28.95;4.13;;;1.10;99.90;;;;;;4928623;29;20126;-63
2022/01/10 04:30:35;;;;;;;27.08;4.13;;;1.20;99.90;;;;;;4927944;29;20052;-63
2022/01/10 04:33:02;;;;;;;27.83;4.03;;;1.20;99.90;;;;;;4929234;29;20090;-63
2022/01/10 04:35:29;;;;;;;25.90;3.75;;;1.40;99.90;;;;;;4928284;29;20175;-63
2022/01/10 04:37:55;;;;;;;27.40;4.18;;;1.30;99.90;;;;;;4904737;29;20044;-63
2022/01/10 04:40:23;;;;;;;24.10;3.95;;;1.20;99.90;;;;;;4928107;29;20051;-63
2022/01/10 04:42:50;;;;;;;36.72;4.65;;;1.20;99.90;;;;;;4929172;29;20063;-63
2022/01/10 04:45:16;;;;;;;34.97;4.70;;;1.10;99.90;;;;;;4915186;29;20110;-63
2022/01/10 04:47:42;;;;;;;18.70;3.60;;;1.10;99.90;;;;;;4929230;29;20059;-63
2022/01/10 04:52:48;;;;;;;28.88;4.28;;;1.00;99.90;;;;;;4931414;29;20118;-63
2022/01/10 04:55:15;;;;;;;27.42;4.50;;;0.90;99.90;;;;;;4938140;29;20134;-63
2022/01/10 04:57:41;;;;;;;15.15;3.47;;;0.90;99.90;;;;;;4931348;29;20126;-63
2022/01/10 05:00:10;;;;;;;33.22;4.25;;;1.00;99.90;;;;;;4933679;29;20083;-63
2022/01/10 05:02:36;;;;;;;20.20;3.72;;;1.00;99.90;;;;;;4914928;29;20075;-63
2022/01/10 05:05:02;;;;;;;24.85;4.38;;;1.10;99.90;;;;;;4933210;29;20127;-63
2022/01/10 05:07:28;;;;;;;25.27;4.30;;;1.10;99.90;;;;;;4929181;29;20046;-63
2022/01/10 05:09:58;;;;;;;34.92;3.92;;;1.10;99.90;;;;;;4925328;29;20059;-63
2022/01/10 05:12:26;;;;;;;20.92;4.07;;;1.20;99.90;;;;;;4932935;29;20396;-63
2022/01/10 05:14:52;;;;;;;37.72;4.85;;;1.30;99.90;;;;;;4931151;29;20044;-63
2022/01/10 05:17:20;;;;;;;28.17;4.90;;;1.30;99.90;;;;;;4932198;29;20400;-63
2022/01/10 05:19:46;;;;;;;33.30;4.82;;;1.30;99.90;;;;;;4931442;29;20051;-63
2022/01/10 05:22:12;;;;;;;32.45;5.10;;;1.30;99.90;;;;;;4932478;29;20040;-63
2022/01/10 05:24:38;;;;;;;36.03;5.32;;;1.30;99.90;;;;;;4931271;29;20186;-63
2022/01/10 05:27:04;;;;;;;32.95;5.10;;;1.20;99.90;;;;;;4931719;29;20118;-63
2022/01/10 05:29:30;;;;;;;31.02;5.07;;;1.20;99.90;;;;;;4932633;29;20058;-63
2022/01/10 05:31:56;;;;;;;32.97;5.60;;;1.20;99.90;;;;;;4930943;29;20249;-63
2022/01/10 05:34:22;;;;;;;28.63;5.88;;;1.20;99.90;;;;;;4932852;29;20123;-63
2022/01/10 05:36:48;;;;;;;32.80;5.65;;;1.20;99.90;;;;;;4934898;29;20603;-63
2022/01/10 05:39:13;;;;;;;36.80;5.40;;;1.10;99.90;;;;;;4939883;29;20040;-63
2022/01/10 05:41:39;;;;;;;23.50;4.95;;;1.20;99.90;;;;;;4931097;29;20055;-63
2022/01/10 05:44:05;;;;;;;28.58;5.45;;;1.20;99.90;;;;;;4932026;29;20111;-63
2022/01/10 05:46:34;;;;;;;29.30;6.30;;;1.20;99.90;;;;;;4932278;29;20491;-63
2022/01/10 05:49:02;;;;;;;27.60;4.97;;;1.10;99.90;;;;;;4923721;29;20534;-63
2022/01/10 05:51:34;;;;;;;26.20;5.53;;;1.10;99.90;;;;;;4915421;29;20044;-63
2022/01/10 05:54:01;;;;;;;23.80;5.18;;;1.00;99.90;;;;;;4931031;29;20474;-63
2022/01/10 05:56:27;;;;;;;28.83;5.75;;;1.00;99.90;;;;;;4932224;29;20439;-63
2022/01/10 05:58:53;;;;;;;43.40;6.70;;;1.00;99.90;;;;;;4922456;29;20128;-63
2022/01/10 06:01:19;;;;;;;33.55;6.40;;;1.00;99.90;;;;;;4931646;29;20491;-63
2022/01/10 06:03:45;;;;;;;24.52;5.97;;;1.00;99.90;;;;;;4931915;29;20050;-63
2022/01/10 06:06:11;;;;;;;37.72;6.78;;;1.00;99.90;;;;;;4930971;29;20577;-63
2022/01/10 06:08:37;;;;;;;36.90;6.68;;;1.00;99.90;;;;;;4919197;29;20059;-63
2022/01/10 06:11:02;;;;;;;42.03;6.68;;;0.90;99.90;;;;;;4913290;29;20044;-63
2022/01/10 06:13:28;;;;;;;27.17;6.43;;;0.90;99.90;;;;;;4932284;29;20291;-62
2022/01/10 06:15:54;;;;;;;37.67;6.78;;;0.90;99.90;;;;;;4930207;29;20470;-63
2022/01/10 06:18:20;;;;;;;35.15;7.25;;;0.90;99.90;;;;;;4932823;29;20470;-63
2022/01/10 06:20:46;;;;;;;40.67;6.15;;;0.90;99.90;;;;;;4930235;29;20506;-63
2022/01/10 06:23:11;;;;;;;41.53;6.82;;;0.90;99.90;;;;;;4930928;29;20048;-63
2022/01/10 06:25:44;;;;;;;28.42;6.22;;;0.90;99.90;;;;;;4931561;29;20052;-63
2022/01/10 06:28:10;;;;;;;30.52;6.35;;;0.80;99.90;;;;;;4929948;29;20495;-63
2022/01/10 06:30:35;;;;;;;24.73;6.40;;;0.70;99.90;;;;;;4917720;29;20044;-63
2022/01/10 06:33:01;;;;;;;29.80;6.20;;;0.70;99.90;;;;;;4930090;29;20043;-63
2022/01/10 06:35:27;;;;;;;25.98;6.30;;;0.60;99.90;;;;;;4914724;29;20044;-63
2022/01/10 06:37:53;;;;;;;21.17;6.13;;;0.60;99.90;;;;;;4930442;29;20510;-63
2022/01/10 06:40:20;;;;;;;31.30;7.03;;;0.60;99.90;;;;;;4937219;29;20078;-63
2022/01/10 06:42:46;;;;;;;33.75;6.07;;;0.60;99.90;;;;;;4937087;29;20048;-63
2022/01/10 06:45:14;;;;;;;29.25;6.82;;;0.60;99.90;;;;;;4929563;29;20054;-63
2022/01/10 06:47:40;;;;;;;19.30;6.70;;;0.50;99.90;;;;;;4913941;29;20260;-63
2022/01/10 06:50:08;;;;;;;41.38;7.22;;;0.60;99.90;;;;;;4930179;29;20533;-63
2022/01/10 06:52:34;;;;;;;43.47;7.60;;;0.60;99.90;;;;;;4923461;29;20043;-63
2022/01/10 06:55:00;;;;;;;40.67;8.43;;;0.60;99.90;;;;;;4929544;29;20056;-63
2022/01/10 06:57:26;;;;;;;33.05;7.72;;;0.60;99.90;;;;;;4930773;29;20071;-63
2022/01/10 06:59:53;;;;;;;25.42;7.22;;;0.60;99.90;;;;;;4930662;29;20090;-63
2022/01/10 07:02:19;;;;;;;35.00;7.55;;;0.50;99.90;;;;;;4911886;29;20053;-63
2022/01/10 07:04:45;;;;;;;36.60;8.02;;;0.40;99.90;;;;;;4929523;29;20050;-63
2022/01/10 07:07:11;;;;;;;30.50;8.30;;;0.40;99.90;;;;;;4925612;29;20031;-63
2022/01/10 07:09:37;;;;;;;40.45;8.77;;;0.40;99.90;;;;;;4930134;29;20264;-63
2022/01/10 07:12:03;;;;;;;27.83;7.18;;;0.40;99.90;;;;;;4929587;29;20083;-63
2022/01/10 07:14:32;;;;;;;39.50;7.53;;;0.40;99.90;;;;;;4931772;29;20094;-63
2022/01/10 07:16:57;;;;;;;40.08;7.55;;;0.40;99.90;;;;;;4927789;29;20091;-63
2022/01/10 07:19:24;;;;;;;36.08;8.63;;;0.40;99.90;;;;;;4932372;29;20051;-63
2022/01/10 07:21:50;;;;;;;21.95;7.35;;;0.20;99.90;;;;;;4933525;29;20122;-63
2022/01/10 07:24:16;;;;;;;23.02;7.45;;;0.20;99.90;;;;;;4934174;29;20039;-63
2022/01/10 07:26:42;;;;;;;25.95;8.05;;;0.10;99.90;;;;;;4922460;29;20119;-63
2022/01/10 07:29:13;;;;;;;24.75;7.53;;;0.00;99.90;;;;;;4942161;29;20070;-63
2022/01/10 07:31:41;;;;;;;29.45;8.20;;;0.00;99.90;;;;;;4937172;29;20051;-63
2022/01/10 07:34:11;;;;;;;32.53;7.88;;;0.00;99.90;;;;;;4942309;29;20039;-63
2022/01/10 07:36:37;;;;;;;47.37;9.40;;;0.10;99.90;;;;;;4926642;29;20512;-63
2022/01/10 07:39:04;;;;;;;26.77;8.20;;;0.10;99.90;;;;;;4925498;29;20487;-63
2022/01/10 07:41:30;;;;;;;31.02;8.98;;;0.20;99.90;;;;;;4925221;29;20434;-63
2022/01/10 07:43:56;;;;;;;31.38;8.48;;;0.20;99.90;;;;;;4931487;29;20130;-63
2022/01/10 07:46:23;;;;;;;27.35;8.88;;;0.30;99.90;;;;;;4931835;29;20075;-63
2022/01/10 07:48:49;;;;;;;34.47;9.93;;;0.20;99.90;;;;;;4931041;29;20109;-63
2022/01/10 07:51:15;;;;;;;42.30;10.18;;;0.30;99.90;;;;;;4932140;29;20079;-63
2022/01/10 07:53:41;;;;;;;35.35;10.57;;;0.30;99.90;;;;;;4916967;29;20134;-63
2022/01/10 07:56:08;;;;;;;38.22;10.43;;;0.30;99.90;;;;;;4933875;29;20059;-63
2022/01/10 07:58:36;;;;;;;44.03;9.93;;;0.30;99.90;;;;;;4929143;29;20083;-63
2022/01/10 08:01:03;;;;;;;39.45;10.75;;;0.40;99.90;;;;;;4918353;29;20529;-63
2022/01/10 08:03:29;;;;;;;32.05;10.60;;;0.50;99.90;;;;;;4934517;29;20051;-63
2022/01/10 08:05:55;;;;;;;36.05;10.73;;;0.50;99.90;;;;;;4941568;29;20051;-63
2022/01/10 08:08:22;;;;;;;43.25;12.10;;;0.50;99.90;;;;;;4937128;29;20075;-63
2022/01/10 08:10:48;;;;;;;38.53;11.60;;;0.60;99.90;;;;;;4902151;29;20052;-64
2022/01/10 08:13:14;;;;;;;37.03;12.13;;;0.60;99.90;;;;;;4917504;29;20089;-63
2022/01/10 08:15:40;;;;;;;51.15;12.27;;;0.60;99.90;;;;;;4933856;29;20047;-63
2022/01/10 08:18:07;;;;;;;39.63;11.95;;;0.60;99.90;;;;;;4935660;29;20051;-63
2022/01/10 08:20:33;;;;;;;38.15;12.80;;;0.60;99.90;;;;;;4932179;29;20461;-64
2022/01/10 08:22:59;;;;;;;41.80;12.00;;;0.60;99.90;;;;;;4930445;29;20079;-63
2022/01/10 08:25:25;;;;;;;44.08;11.82;;;0.60;99.90;;;;;;4934206;28;20051;-63
2022/01/10 08:27:52;;;;;;;43.92;14.02;;;0.60;99.90;;;;;;4943607;29;20062;-63
2022/01/10 08:30:18;;;;;;;47.60;12.68;;;0.70;99.90;;;;;;4921964;29;20059;-63
2022/01/10 08:32:46;;;;;;;48.97;13.23;;;0.70;99.90;;;;;;4912956;29;20036;-63
2022/01/10 08:35:12;;;;;;;42.38;12.52;;;0.80;99.90;;;;;;4925609;29;20063;-63
2022/01/10 08:37:38;;;;;;;49.72;12.35;;;0.80;99.90;;;;;;4927049;29;20094;-63
2022/01/10 08:40:04;;;;;;;46.13;12.23;;;0.80;99.90;;;;;;4936799;29;20082;-64
2022/01/10 08:42:31;;;;;;;62.33;13.55;;;0.70;99.90;;;;;;4938144;29;20134;-63
2022/01/10 08:44:57;;;;;;;55.67;13.77;;;0.70;99.90;;;;;;4943164;29;20048;-64
2022/01/10 08:47:23;;;;;;;38.65;11.93;;;0.70;99.90;;;;;;4937161;29;20060;-63
2022/01/10 08:49:49;;;;;;;38.47;11.77;;;0.80;99.90;;;;;;4934298;29;20059;-64
2022/01/10 08:52:16;;;;;;;46.25;12.10;;;0.80;99.90;;;;;;4933371;29;20062;-63
2022/01/10 08:54:42;;;;;;;41.17;13.07;;;0.90;99.90;;;;;;4937435;29;20220;-64
2022/01/10 08:57:08;;;;;;;40.60;12.85;;;0.90;99.90;;;;;;4924787;29;20051;-63
2022/01/10 08:59:33;;;;;;;42.28;12.27;;;0.90;99.90;;;;;;4931929;29;20115;-64
2022/01/10 09:02:00;;;;;;;44.25;12.05;;;1.00;99.90;;;;;;4903288;29;20130;-63
2022/01/10 09:04:26;;;;;;;51.53;11.55;;;1.00;99.90;;;;;;4931235;29;20062;-63
2022/01/10 09:06:54;;;;;;;45.72;11.43;;;1.00;99.90;;;;;;4901554;29;20095;-63
2022/01/10 09:09:21;;;;;;;44.80;11.98;;;0.90;99.90;;;;;;4915635;29;20046;-63
2022/01/10 09:11:47;;;;;;;44.90;12.15;;;1.00;99.90;;;;;;4912743;29;20091;-63
2022/01/10 09:14:13;;;;;;;37.58;11.45;;;1.00;99.90;;;;;;4933804;29;20050;-63
2022/01/10 09:16:40;;;;;;;44.67;12.52;;;1.00;99.90;;;;;;4932439;29;20055;-63
2022/01/10 09:19:06;;;;;;;38.83;11.23;;;1.00;99.90;;;;;;4931783;29;20039;-62
2022/01/10 09:21:32;;;;;;;38.50;12.07;;;1.10;99.90;;;;;;4933589;29;20570;-63
2022/01/10 09:23:59;;;;;;;39.80;12.02;;;1.10;99.90;;;;;;4936002;29;20047;-63
2022/01/10 09:26:26;;;;;;;32.42;11.50;;;1.10;99.90;;;;;;4937629;29;20450;-62
2022/01/10 09:28:53;;;;;;;38.53;12.82;;;1.20;99.90;;;;;;4936259;29;20987;-62
2022/01/10 09:31:22;;;;;;;37.17;11.52;;;1.20;99.90;;;;;;4934167;29;20389;-62
2022/01/10 09:33:53;;;;;;;43.50;12.35;;;1.30;99.90;;;;;;4936708;29;20516;-63
2022/01/10 09:36:20;;;;;;;44.58;12.93;;;1.30;99.90;;;;;;4939409;29;20118;-62
2022/01/10 09:38:46;;;;;;;46.05;12.98;;;1.30;99.90;;;;;;4935385;29;20043;-62
2022/01/10 09:41:12;;;;;;;51.08;13.70;;;1.40;99.90;;;;;;4964137;23;20516;-62
2022/01/10 09:43:39;;;;;;;54.00;14.63;;;1.40;99.90;;;;;;4954483;28;20109;-62
2022/01/10 09:46:05;;;;;;;51.78;14.77;;;1.40;99.90;;;;;;4960688;28;20047;-62
2022/01/10 09:48:31;;;;;;;49.33;15.50;;;1.50;99.90;;;;;;4959049;28;20043;-62
2022/01/10 09:50:57;;;;;;;58.58;15.90;;;1.50;99.90;;;;;;4923984;28;20043;-62
2022/01/10 09:53:24;;;;;;;55.20;15.95;;;1.70;99.90;;;;;;4939475;28;20046;-62
2022/01/10 09:55:50;;;;;;;48.47;15.80;;;1.70;99.90;;;;;;4938994;28;20529;-62
2022/01/10 09:58:16;;;;;;;53.78;16.27;;;1.70;99.90;;;;;;4931998;28;20058;-62
2022/01/10 10:00:45;;;;;;;52.95;16.05;;;1.80;99.90;;;;;;4931426;28;20126;-62
2022/01/10 10:03:12;;;;;;;47.65;15.30;;;1.90;99.90;;;;;;4936616;28;20063;-62
2022/01/10 10:05:39;;;;;;;52.33;17.02;;;1.90;99.90;;;;;;4929814;29;20051;-63
2022/01/10 10:08:05;;;;;;;52.53;17.35;;;2.00;99.90;;;;;;4937356;28;20047;-63
2022/01/10 10:10:32;;;;;;;57.13;17.50;;;2.10;99.90;;;;;;4936294;28;20121;-63
2022/01/10 10:12:57;;;;;;;55.20;18.73;;;2.10;99.90;;;;;;4925478;28;20109;-63
2022/01/10 10:15:28;;;;;;;47.05;17.38;;;2.20;99.90;;;;;;4943286;28;20039;-63
2022/01/10 10:17:54;;;;;;;61.20;20.15;;;2.30;99.90;;;;;;4941696;28;20052;-63
2022/01/10 10:20:22;;;;;;;70.13;20.73;;;2.30;99.90;;;;;;4940124;28;20054;-63
2022/01/10 10:22:53;;;;;;;57.40;20.65;;;2.40;99.90;;;;;;4939612;28;20043;-63
2022/01/10 10:25:20;;;;;;;71.32;21.05;;;2.40;99.90;;;;;;4932694;28;20047;-63
2022/01/10 10:27:50;;;;;;;67.93;20.92;;;2.50;99.90;;;;;;4936706;28;20533;-63
2022/01/10 10:30:25;;;;;;;90.43;23.65;;;2.50;99.90;;;;;;4926167;29;20101;-63
2022/01/10 10:32:51;;;;;;;80.68;23.13;;;2.60;99.90;;;;;;4934722;28;20410;-63
2022/01/10 10:35:19;;;;;;;92.47;24.90;;;2.60;99.90;;;;;;4942627;28;20128;-63
2022/01/10 10:37:48;;;;;;;84.03;25.45;;;2.70;99.90;;;;;;4946868;28;21154;-64
2022/01/10 10:40:15;;;;;;;77.22;25.00;;;2.80;99.90;;;;;;4946761;28;20035;-63
2022/01/10 10:42:43;;;;;;;79.78;24.90;;;2.80;99.90;;;;;;4951485;28;20112;-63
2022/01/10 10:45:15;;;;;;;92.65;29.10;;;2.90;99.90;;;;;;4951168;28;20490;-63
2022/01/10 10:47:45;;;;;;;109.47;30.13;;;3.00;99.90;;;;;;4960903;28;20043;-64
2022/01/10 10:50:13;;;;;;;87.13;27.08;;;3.00;99.90;;;;;;4951431;28;20046;-63
2022/01/10 10:52:41;;;;;;;83.93;24.10;;;3.10;99.90;;;;;;4950656;28;20105;-64
2022/01/10 10:55:13;;;;;;;95.57;27.25;;;3.20;99.90;;;;;;4933339;28;20070;-64
2022/01/10 10:57:42;;;;;;;83.18;25.95;;;3.20;99.90;;;;;;4943211;28;20039;-64
2022/01/10 11:00:14;;;;;;;73.30;26.55;;;3.20;99.90;;;;;;4947388;28;20125;-64
2022/01/10 11:02:42;;;;;;;79.47;26.95;;;3.30;99.90;;;;;;4928223;29;20497;-63
2022/01/10 11:05:12;;;;;;;61.03;18.17;;;3.30;99.90;;;;;;4942861;28;20097;-64
2022/01/10 11:07:38;;;;;;;76.85;23.38;;;3.40;99.90;;;;;;4941537;28;20038;-64
2022/01/10 11:10:06;;;;;;;79.57;25.60;;;3.40;99.90;;;;;;4952925;28;20122;-64
2022/01/10 11:12:34;;;;;;;64.68;23.35;;;3.40;99.90;;;;;;4954124;28;20047;-64
2022/01/10 11:15:03;;;;;;;57.83;22.70;;;3.50;99.90;;;;;;4936063;29;20075;-64
2022/01/10 11:17:30;;;;;;;70.28;24.13;;;3.50;99.90;;;;;;4947784;28;20051;-64
2022/01/10 11:20:17;;;;;;;61.88;21.65;;;3.60;99.90;;;;;;4942854;28;20050;-64
2022/01/10 11:22:55;;;;;;;56.75;21.20;;;3.60;99.90;;;;;;4949605;28;20051;-64
2022/01/10 11:25:33;;;;;;;48.25;17.88;;;3.70;99.90;;;;;;4962573;28;20105;-64
2022/01/10 11:28:24;;;;;;;59.65;19.50;;;3.70;99.90;;;;;;4960658;28;20047;-64
2022/01/10 11:31:02;;;;;;;56.67;20.60;;;3.80;99.90;;;;;;4961881;28;20066;-64
2022/01/10 11:33:36;;;;;;;47.65;18.60;;;3.80;99.90;;;;;;4959950;28;20131;-64
2022/01/10 11:36:08;;;;;;;42.40;17.95;;;3.90;99.90;;;;;;4933318;28;20036;-64
2022/01/10 11:38:56;;;;;;;52.38;20.13;;;3.90;99.90;;;;;;4932302;28;20521;-64
2022/01/10 11:41:33;;;;;;;48.20;19.90;;;4.00;99.90;;;;;;4932908;28;20549;-64
2022/01/10 11:44:23;;;;;;;44.80;18.83;;;4.00;99.90;;;;;;4941256;28;20446;-64
2022/01/10 11:46:52;;;;;;;46.50;16.63;;;4.10;99.90;;;;;;4939925;28;20142;-64
2022/01/10 11:49:22;;;;;;;41.42;18.25;;;4.10;99.90;;;;;;4935600;28;20150;-64
2022/01/10 11:51:51;;;;;;;42.97;18.40;;;4.10;99.90;;;;;;4941194;28;20055;-64
2022/01/10 11:54:26;;;;;;;58.40;19.65;;;4.10;99.90;;;;;;4934567;28;20051;-64
2022/01/10 11:56:59;;;;;;;49.53;20.75;;;4.20;99.90;;;;;;4934808;28;20055;-64
2022/01/10 11:59:35;;;;;;;47.25;19.27;;;4.20;99.90;;;;;;4915868;29;20408;-65
2022/01/10 12:02:19;;;;;;;54.97;20.70;;;4.30;99.90;;;;;;4934484;28;20051;-64
2022/01/10 12:04:49;;;;;;;55.17;20.70;;;4.40;99.90;;;;;;4926365;29;20051;-65
2022/01/10 12:07:19;;;;;;;49.97;23.25;;;4.40;99.90;;;;;;4948199;28;20066;-64
2022/01/10 12:09:46;;;;;;;52.28;18.92;;;4.50;99.90;;;;;;4949970;28;20039;-64
2022/01/10 12:12:17;;;;;;;50.50;20.45;;;4.50;99.90;;;;;;4954575;28;20122;-64
2022/01/10 12:14:48;;;;;;;47.42;19.95;;;4.60;99.90;;;;;;4948181;28;20394;-64
2022/01/10 12:17:20;;;;;;;49.28;21.00;;;4.60;99.90;;;;;;4962855;28;20177;-65
2022/01/10 12:19:50;;;;;;;53.35;19.67;;;4.70;99.90;;;;;;4956379;28;20051;-64
2022/01/10 12:22:17;;;;;;;52.92;20.80;;;4.70;99.90;;;;;;4952998;28;20628;-64
2022/01/10 12:24:44;;;;;;;48.33;20.30;;;4.80;99.90;;;;;;4945905;28;20054;-64
2022/01/10 12:27:15;;;;;;;41.60;18.77;;;4.80;99.90;;;;;;4948234;28;20076;-64
2022/01/10 12:29:44;;;;;;;45.22;18.88;;;4.90;99.90;;;;;;4948981;28;20047;-65
2022/01/10 12:32:11;;;;;;;45.75;19.55;;;5.00;99.90;;;;;;4929084;28;20070;-64
2022/01/10 12:34:39;;;;;;;41.63;19.63;;;5.00;99.90;;;;;;4947627;28;20672;-64
2022/01/10 12:37:06;;;;;;;45.45;19.85;;;5.10;99.90;;;;;;4946481;28;20043;-65
2022/01/10 12:39:37;;;;;;;43.85;19.40;;;5.20;99.90;;;;;;4946451;28;20050;-64
2022/01/10 12:42:04;;;;;;;57.45;19.25;;;5.30;99.90;;;;;;4947798;28;20059;-64
2022/01/10 12:44:30;;;;;;;50.00;20.90;;;5.30;99.90;;;;;;4950222;28;20262;-64
2022/01/10 12:46:56;;;;;;;59.00;20.85;;;5.30;99.90;;;;;;4927416;29;20521;-64
2022/01/10 12:49:24;;;;;;;44.60;18.63;;;5.40;99.90;;;;;;4946949;28;20521;-65
2022/01/10 12:51:56;;;;;;;57.22;19.02;;;5.50;99.90;;;;;;4930984;29;20501;-64
2022/01/10 12:54:29;;;;;;;38.33;17.13;;;5.50;99.90;;;;;;4951394;28;20054;-64
2022/01/10 12:56:59;;;;;;;48.85;15.80;;;5.50;99.90;;;;;;4948438;28;20047;-64
2022/01/10 12:59:38;;;;;;;47.35;17.77;;;5.60;99.90;;;;;;4949037;28;20475;-65
2022/01/10 13:02:06;;;;;;;39.78;16.02;;;5.60;99.90;;;;;;4953138;28;20494;-65